DW8209 Gubbio IT current weather conditions

sailwx.info

Wind from 191 at 4 knots gusting 9

Air temperature 12.8° C
Dewpoint 9.6° C

Last reported at 2015-Mar-31 19:42 UTC.
Time now 2015-Mar-31 20:48 UTC

Location: N 43°19' E 012°34'.
View on Google Maps.

See reports from other nearby stations

  
Tides and Currents Weather Stations Pressure Air Temp Water Temp Dewpoint Dewpoint Depression Visibility Wind Speed Wind Dir Waves Ship Positions
date/time (UTC)wind fromknots sea level pressurealtimeterstation pressurevisibilityair tempwater tempwave heightnotes
2015-Mar-31 19:42 191 4 gusting 9 12.8
2015-Mar-31 19:27 171 5 gusting 10 13.3
2015-Mar-31 19:12 212 4 gusting 9 13.9
2015-Mar-31 18:57 181 6 gusting 12 13.9
2015-Mar-31 18:42 216 6 gusting 11 14.4
2015-Mar-31 18:27 181 5 gusting 11 15.0
2015-Mar-31 18:14 192 5 gusting 11 15.0
2015-Mar-31 17:57 177 6 gusting 14 15.6
2015-Mar-31 17:42 163 7 gusting 15 16.1
2015-Mar-31 17:27 212 2 gusting 13 16.7
2015-Mar-31 17:12 204 6 gusting 19 17.2
2015-Mar-31 16:57 207 6 gusting 12 17.8
2015-Mar-31 16:42 141 6 gusting 15 18.3
2015-Mar-31 16:27 128 5 gusting 14 18.9
2015-Mar-31 16:12 203 4 gusting 15 18.3
2015-Mar-31 15:57 189 4 gusting 14 18.9
2015-Mar-31 15:42 151 7 gusting 16 18.9
2015-Mar-31 15:28 218 7 gusting 13 19.4
2015-Mar-31 15:12 218 6 gusting 16 19.4
2015-Mar-31 14:57 232 10 gusting 15 18.9
2015-Mar-31 14:42 202 5 gusting 13 20.0
2015-Mar-31 14:27 218 8 gusting 16 20.0
2015-Mar-31 14:12 224 8 gusting 19 19.4
2015-Mar-31 13:57 226 7 gusting 18 19.4
2015-Mar-31 13:42 231 9 gusting 17 19.4
2015-Mar-31 13:27 197 6 gusting 14 19.4
2015-Mar-31 13:12 172 6 gusting 16 19.4
2015-Mar-31 12:57 191 4 gusting 12 19.4
2015-Mar-31 12:41 191 10 gusting 18 18.9
2015-Mar-31 12:26 198 7 gusting 17 18.3
2015-Mar-31 12:11 240 8 gusting 13 18.3
2015-Mar-31 11:56 207 10 gusting 17 17.8
2015-Mar-31 11:41 184 5 gusting 10 17.8
2015-Mar-31 11:26 181 5 gusting 12 17.2
2015-Mar-31 11:11 165 8 gusting 13 16.7
2015-Mar-31 10:56 218 4 gusting 10 16.7
2015-Mar-31 10:41 148 6 gusting 11 16.1
2015-Mar-31 10:26 233 6 gusting 11 15.6
2015-Mar-31 10:11 221 2 gusting 10 15.0
2015-Mar-31 09:56 263 4 gusting 10 14.4
2015-Mar-31 09:41 159 6 gusting 11 14.4
2015-Mar-31 09:26 172 7 gusting 15 14.4
2015-Mar-31 09:11 188 7 gusting 13 13.9
2015-Mar-31 08:56 127 5 gusting 9 13.3
2015-Mar-31 08:41 122 3 gusting 5 12.2
2015-Mar-31 08:26 085 3 gusting 5 11.1
2015-Mar-31 08:11 077 2 gusting 3 10.0
2015-Mar-31 07:55 099 1 gusting 2 8.9
2015-Mar-31 07:40 065 1 gusting 3 8.9
2015-Mar-31 07:25 124 8.3
2015-Mar-31 07:10 139 7.2
2015-Mar-31 06:55 151 1 gusting 2 7.2
2015-Mar-31 06:40 253 7.2
2015-Mar-31 06:25 014 6.1
2015-Mar-31 06:10 340 5.0
2015-Mar-31 05:55
2015-Mar-31 05:40
2015-Mar-31 05:25
2015-Mar-31 05:10
2015-Mar-31 04:58
2015-Mar-31 04:52
2015-Mar-31 04:37
2015-Mar-31 04:22
2015-Mar-31 04:07
2015-Mar-31 03:51
2015-Mar-31 03:36
2015-Mar-31 03:21 267 3.3
2015-Mar-31 03:06 284 0 gusting 1 3.9
2015-Mar-31 02:51 297 0 gusting 1 4.4
2015-Mar-31 02:36 291 4.4
2015-Mar-31 02:21 023 4.4
2015-Mar-31 02:06 235 3.9
2015-Mar-31 01:51 235 0 gusting 1 5.0
2015-Mar-31 01:36 304 5.0
2015-Mar-31 01:21 273 0 gusting 1 5.0
2015-Mar-31 01:06 253 0 gusting 1 5.6
2015-Mar-31 00:51 312 5.6
2015-Mar-31 00:36 335 5.6
2015-Mar-31 00:21 270 5.6
2015-Mar-31 00:06 281 6.1
2015-Mar-30 23:51 281 6.1
2015-Mar-30 23:36 281 6.1
2015-Mar-30 23:21 281 6.1
2015-Mar-30 23:06 283 6.7
2015-Mar-30 22:51 293 0 gusting 1 6.7
2015-Mar-30 22:35 264 1 gusting 1 6.7
2015-Mar-30 22:20 245 7.2
2015-Mar-30 22:05 245 7.2
2015-Mar-30 21:50 245 7.8
2015-Mar-30 21:35 245 7.8
2015-Mar-30 21:20 131 0 gusting 2 8.3
2015-Mar-30 21:05 013 1 gusting 2 8.9
2015-Mar-30 20:50 068 0 gusting 1 8.3
2015-Mar-30 20:35 297 0 gusting 2 9.4
2015-Mar-30 20:20 317 1 gusting 2 9.4
2015-Mar-30 20:05 266 10.0
2015-Mar-30 19:50 281 0 gusting 2 10.6
2015-Mar-30 19:35 286 2 11.1
2015-Mar-30 19:20 278 3 gusting 5 11.1
2015-Mar-30 19:05 278 1 gusting 4 11.7
2015-Mar-30 18:50 226 0 gusting 2 11.7
2015-Mar-30 18:35 250 1 gusting 4 11.7
2015-Mar-30 18:20 279 1 gusting 2 12.2
2015-Mar-30 18:05 235 0 gusting 2 13.3
2015-Mar-30 17:50 245 1 gusting 3 13.9
2015-Mar-30 17:35 240 0 gusting 1 13.9
2015-Mar-30 17:20 240 2 gusting 5 14.4
2015-Mar-30 17:05 262 6 gusting 9 15.0
2015-Mar-30 16:50 276 4 gusting 7 15.6
2015-Mar-30 16:35 297 4 gusting 9 15.6
2015-Mar-30 16:20 274 5 gusting 11 16.1
2015-Mar-30 16:05 274 4 gusting 9 16.1
2015-Mar-30 15:50 295 5 gusting 13 16.1
2015-Mar-30 15:35 284 8 gusting 14 16.1
2015-Mar-30 15:20 259 12 gusting 20 16.1
2015-Mar-30 15:05 278 13 gusting 18 16.1
2015-Mar-30 14:50 284 8 gusting 17 16.1
2015-Mar-30 14:35 293 6 gusting 18 16.1
2015-Mar-30 14:20 281 9 gusting 15 16.1
2015-Mar-30 14:05 259 8 gusting 12 15.6
2015-Mar-30 13:50 269 9 gusting 16 15.6
2015-Mar-30 13:35 259 7 gusting 14 15.6
2015-Mar-30 13:19 262 8 gusting 19 15.6
2015-Mar-30 13:04 257 8 gusting 15 15.6
2015-Mar-30 12:49 245 9 gusting 17 15.6
2015-Mar-30 12:34 267 10 gusting 15 15.6
2015-Mar-30 12:19 240 3 gusting 10 15.0
2015-Mar-30 12:04 222 4 gusting 9 15.0
2015-Mar-30 11:49 190 5 gusting 13 14.4
2015-Mar-30 11:34 280 5 gusting 11 13.9
2015-Mar-30 11:19 283 3 gusting 11 13.9
2015-Mar-30 11:04 225 4 gusting 11 13.9
2015-Mar-30 10:49 225 4 gusting 9 13.3
2015-Mar-30 10:34 221 5 gusting 7 13.3
2015-Mar-30 10:19 210 4 gusting 7 13.3
2015-Mar-30 10:04 153 2 gusting 6 12.2
2015-Mar-30 09:49 212 2 gusting 8 12.2
2015-Mar-30 09:34 218 2 gusting 6 12.2
2015-Mar-30 09:19 188 4 gusting 10 11.7
2015-Mar-30 09:04 155 6 gusting 10 11.7
2015-Mar-30 08:49 181 5 gusting 10 11.7
2015-Mar-30 08:34 162 4 gusting 8 11.1
2015-Mar-30 08:18 211 2 gusting 6 11.1
2015-Mar-30 08:03 239 4 gusting 9 10.6
2015-Mar-30 07:48 203 3 gusting 7 10.6
2015-Mar-30 07:33 224 4 gusting 7 10.6
2015-Mar-30 07:18 225 3 gusting 8 10.0
2015-Mar-30 07:03 219 4 gusting 7 10.0
2015-Mar-30 06:48 207 1 gusting 6 10.0
2015-Mar-30 06:33 215 3 gusting 9 10.0
2015-Mar-30 06:18 210 4 gusting 7 10.0
2015-Mar-30 06:03 225 3 gusting 6 10.0
2015-Mar-30 05:48 189 3 gusting 8 10.0
2015-Mar-30 05:33
2015-Mar-30 05:18
2015-Mar-30 05:03
2015-Mar-30 04:48
2015-Mar-30 04:33
2015-Mar-30 04:18
2015-Mar-30 04:03
2015-Mar-30 03:48
2015-Mar-30 03:33
2015-Mar-30 03:17 009 9.4
2015-Mar-30 03:02 198 1 gusting 5 10.0
2015-Mar-30 02:47 266 6 gusting 12 10.0
2015-Mar-30 02:32 143 0 gusting 5 10.0
2015-Mar-30 02:17 207 1 gusting 6 10.0
2015-Mar-30 02:02 226 0 gusting 6 10.0
2015-Mar-30 01:47 245 2 gusting 6 9.4
2015-Mar-30 01:32 236 0 gusting 2 9.4
2015-Mar-30 01:17 281 1 gusting 3 9.4
2015-Mar-30 01:02 124 9.4
2015-Mar-30 00:47 114 1 gusting 6 9.4
2015-Mar-30 00:32 141 4 gusting 7 9.4
2015-Mar-30 00:17 143 0 gusting 7 9.4
2015-Mar-30 00:02 174 3 gusting 7 9.4
2015-Mar-29 23:47 208 1 gusting 6 9.4
2015-Mar-29 23:32 204 4 gusting 12 10.0
2015-Mar-29 23:17 200 5 gusting 12 10.0
2015-Mar-29 23:02 200 7 gusting 15 10.0
2015-Mar-29 22:47 233 6 gusting 13 10.6
2015-Mar-29 22:32 146 6 gusting 10 10.6
2015-Mar-29 22:17 174 6 gusting 13 10.6
2015-Mar-29 22:02 207 5 gusting 12 10.6
2015-Mar-29 21:47 163 0 gusting 4 10.6
2015-Mar-29 21:32 073 0 gusting 2 10.6
2015-Mar-29 21:17 250 11.1
2015-Mar-29 21:02 273 0 gusting 2 11.1
2015-Mar-29 20:47 215 3 gusting 5 11.1
2015-Mar-29 20:32 224 10.0
2015-Mar-29 20:17 158 10.6
2015-Mar-29 20:02 210 1 gusting 3 12.2